Terminal Aerodrome Forecast
Issued by NWS Goodland, KS

Home | Current Version | Previous Version | Text Only | Print | Product List | Glossary On
Versions: 1 2 3 4 5 6 7 8 9 10 11 12 13 14 15 16 17
079
FTUS43 KGLD 281143 AAD
TAFGLD
TAF AMD
KGLD 281143Z 2812/2912 14013KT 4SM -RA BR OVC003
     FM281500 12014KT 3SM -SHRA OVC003
     FM281800 11015G23KT 2SM SHRA OVC003
     FM290000 08014KT 3SM SHRA OVC003
     FM290600 06013KT 1 1/2SM RA OVC003
     FM291000 03014KT 1/2SM RA OVC003=

USA.gov is the U.S. government's official web portal to all federal, state and local government web resources and services.